Flight Track Log - Related Links

Times and Time Zones

All times are in EDT time to prevent confusion due to time zone crossing. See the CPZ5750 flight status page for this flight to view local times or setup timezone preferences in your user account.

Time Position Orientation Groundspeed Altitude Reporting Facility
EDT Latitude Longitude Course Direction KTS MPH feet Rate Location/Type
Tue 04:41:02 PM 44.9494 -93.2508 45° Northeast 175 201 3,200  Level Minneapolis Center
Tue 04:42:04 PM 44.9967 -93.2003 37° Northeast 236 272 5,700 2,274 Climbing Minneapolis Center
Tue 04:43:06 PM 45.0331 -93.1131 59° Northeast 256 295 7,900 2,226 Climbing Minneapolis Center
Tue 04:44:08 PM 45.0814 -93.0028 58° Northeast 299 344 10,300 1,632 Climbing Minneapolis Center
Tue 04:45:11 PM 45.1303 -92.8833 60° Northeast 354 407 11,300 1,584 Climbing Minneapolis Center
Tue 04:46:00 PM 45.3460 -92.4763 45° Northeast  Level FlightAware Approximate
Tue 04:46:13 PM 45.1900 -92.7453 58° Northeast 381 438 13,600  Level Minneapolis Center
Tue 04:47:15 PM 45.2503 -92.6169 56° Northeast 391 450 15,300 1,597 Climbing Minneapolis Center
Tue 04:48:17 PM 45.3119 -92.4806 57° Northeast 412 474 16,900 1,790 Climbing Minneapolis Center
Tue 04:49:19 PM 45.3086 -92.2978 91° East 434 499 19,000 1,707 Climbing Minneapolis Center
Tue 04:50:20 PM 45.3008 -92.1597 95° East 439 505 20,400 1,500 Climbing Minneapolis Center
Tue 04:51:23 PM 45.2894 -91.9558 94° East 442 509 22,100 1,488 Climbing Minneapolis Center
Tue 04:52:25 PM 45.2786 -91.7839 95° East 441 507 23,500 1,306 Climbing Minneapolis Center
Tue 04:53:27 PM 45.2683 -91.5950 94° East 456 525 24,800 1,065 Climbing Minneapolis Center
Tue 04:54:29 PM 45.2600 -91.4478 95° East 463 533 25,700 1,016 Climbing Minneapolis Center
Tue 04:55:31 PM 45.2433 -91.1842 95° East 477 549 26,900 968 Climbing Minneapolis Center
Tue 04:56:33 PM 45.2303 -90.9911 95° East 487 560 27,700 823 Climbing Minneapolis Center
Tue 04:57:35 PM 45.2183 -90.7936 95° East 500 575 28,600 864 Climbing Minneapolis Center
Tue 04:58:38 PM 45.2044 -90.5961 96° East 505 581 29,500 968 Climbing Minneapolis Center
Tue 04:59:39 PM 45.1928 -90.4397 96° East 503 579 30,600 726 Climbing Minneapolis Center
Tue 05:00:42 PM 45.1733 -90.1714 96° East 493 567 31,000 336 Climbing Minneapolis Center
Tue 05:01:44 PM 45.1603 -89.9817 96° East 489 563 31,300 532 Climbing Minneapolis Center
Tue 05:02:46 PM 45.1447 -89.7900 96° East 491 565 32,100 823 Climbing Minneapolis Center
Tue 05:03:48 PM 45.1308 -89.6017 96° East 487 560 33,000 435 Climbing Minneapolis Center
Tue 05:04:50 PM 45.1164 -89.4119 96° East 487 560 33,000  Level Minneapolis Center
Tue 05:05:52 PM 45.1053 -89.2603 96° East 487 560 33,000  Level Minneapolis Center
Tue 05:06:54 PM 45.0833 -88.9944 97° East 488 562 33,000  Level Minneapolis Center
Tue 05:07:56 PM 45.0661 -88.8053 97° East 488 562 33,000  Level Minneapolis Center
Tue 05:08:58 PM 45.0517 -88.6239 96° East 488 562 33,000  Level Minneapolis Center
Tue 05:10:12 PM 45.0344 -88.4339 97° East 488 562 33,000  Level Minneapolis Center
Tue 05:11:15 PM 45.0119 -88.1686 97° East 487 560 33,000  Level Minneapolis Center
Tue 05:12:17 PM 44.9939 -87.9758 97° East 493 567 33,000  Level Minneapolis Center
Tue 05:13:19 PM 44.9769 -87.7867 97° East 489 563 33,000  Level Minneapolis Center
Tue 05:14:21 PM 44.9592 -87.5981 98° East 486 559 33,000  Level Minneapolis Center
Tue 05:15:23 PM 44.9394 -87.4072 98° East 491 565 33,000  Level Minneapolis Center
Tue 05:16:25 PM 44.9208 -87.2178 98° East 489 563 33,000  Level Minneapolis Center
Tue 05:17:27 PM 44.8986 -86.9900 98° East 490 564 33,000  Level Minneapolis Center
Tue 05:18:29 PM 44.8800 -86.8025 98° East 486 559 33,000  Level Minneapolis Center
Tue 05:19:31 PM 44.8619 -86.6236 98° East 489 563 33,000  Level Minneapolis Center
Tue 05:20:33 PM 44.8411 -86.4328 99° East 491 565 33,000  Level Minneapolis Center
Tue 05:21:35 PM 44.8178 -86.2067 98° East 489 563 33,000  Level Minneapolis Center
Tue 05:22:38 PM 44.7975 -86.0194 99° East 485 558 33,000  Level Minneapolis Center
Tue 05:23:40 PM 44.7769 -85.8297 99° East 488 562 33,000  Level Minneapolis Center
Tue 05:24:42 PM 44.7567 -85.6508 99° East 490 564 33,000  Level Minneapolis Center
Tue 05:25:44 PM 44.7422 -85.4208 95° East 495 570 33,000  Level Minneapolis Center
Tue 05:26:46 PM 44.7497 -85.2283 87° East 496 571 33,000  Level Minneapolis Center
Tue 05:27:48 PM 44.7556 -85.0350 87° East 497 572 33,000  Level Minneapolis Center
Tue 05:28:50 PM 44.7631 -84.8406 87° East 498 573 33,000  Level Minneapolis Center
Tue 05:29:52 PM 44.7481 -84.6503 96° East 491 565 33,000  Level Minneapolis Center
Tue 05:30:54 PM 44.7225 -84.4622 101° East 491 565 33,000  Level Minneapolis Center
Tue 05:31:56 PM 44.6922 -84.2364 101° East 491 565 33,000  Level Minneapolis Center
Tue 05:32:58 PM 44.6664 -84.0461 101° East 494 568 33,000  Level Minneapolis Center
Tue 05:34:00 PM 44.6389 -83.8589 102° East 493 567 33,000  Level Minneapolis Center
Tue 05:35:02 PM 44.6147 -83.6722 100° East 490 564 33,000  Level Minneapolis Center
Tue 05:36:16 PM 44.5883 -83.4836 101° East 491 565 33,000  Level Minneapolis Center
Tue 05:37:19 PM 44.5558 -83.2592 101° East 492 566 33,000  Level Minneapolis Center
Tue 05:38:21 PM 44.5236 -83.0389 102° East 485 558 33,000  Level Minneapolis Center
Tue 05:39:23 PM 44.4981 -82.8567 101° East 480 552 33,000  Level Minneapolis Center
Tue 05:40:25 PM 44.4703 -82.6747 102° East 479 551 33,000  Level Minneapolis Center
Tue 05:41:27 PM 44.4428 -82.4947 102° East 477 549 33,000  Level Minneapolis Center
Tue 05:42:29 PM 44.4169 -82.3147 101° East 475 547 33,000  Level Minneapolis Center
Tue 05:43:44 PM 44.3500 -82.0333 108° East 480 552 33,000  Level Toronto Center
Tue 05:44:44 PM 44.3333 -81.8667 98° East 480 552 33,000  Level Toronto Center
Tue 05:45:44 PM 44.3167 -81.7000 98° East 470 541 33,000  Level Toronto Center
Tue 05:46:44 PM 44.2833 -81.5167 104° East 470 541 33,000 -50 Level Toronto Center
Tue 05:47:44 PM 44.2500 -81.3500 106° East 470 541 32,900 -1,050 Descending Toronto Center
Tue 05:48:44 PM 44.2167 -81.1667 104° East 460 529 30,900 -1,950 Descending Toronto Center
Tue 05:49:44 PM 44.1833 -81.0000 106° East 440 506 29,000 -950 Descending Toronto Center
Tue 05:50:44 PM 44.1500 -80.8333 106° East 440 506 29,000  Level Toronto Center
Tue 05:51:44 PM 44.1500 -80.6500 90° East 450 518 29,000  Level Toronto Center
Tue 05:52:44 PM 44.1167 -80.5000 107° East 460 529 29,000  Level Toronto Center
Tue 05:53:44 PM 44.0833 -80.3000 103° East 460 529 29,000  Level Toronto Center
Tue 05:54:44 PM 44.0500 -80.1500 107° East 460 529 29,000  Level Toronto Center
Tue 05:55:44 PM 44.0167 -79.9500 103° East 460 529 29,000  Level Toronto Center
Tue 05:56:44 PM 43.9833 -79.8000 107° East 460 529 29,000  Level Toronto Center
Tue 05:57:44 PM 43.9667 -79.6333 98° East 460 529 29,000  Level Toronto Center
Tue 05:58:44 PM 43.9333 -79.4500 104° East 460 529 29,000  Level Toronto Center
Tue 05:59:44 PM 43.9000 -79.2833 105° East 460 529 29,000  Level Toronto Center
Tue 06:00:44 PM 43.8667 -79.1000 104° East 460 529 29,000  Level Toronto Center
Tue 06:01:44 PM 43.8333 -78.9333 105° East 460 529 29,000  Level Toronto Center
Tue 06:02:44 PM 43.8000 -78.7833 107° East 460 529 29,000  Level Toronto Center
Tue 06:03:44 PM 43.7667 -78.6000 104° East 460 529 29,000  Level Toronto Center
Tue 06:04:44 PM 43.7333 -78.4167 104° East 460 529 29,000  Level Toronto Center
Tue 06:05:44 PM 43.7000 -78.2333 104° East 470 541 29,000  Level Toronto Center
Tue 06:06:44 PM 43.6667 -78.0667 105° East 470 541 29,000  Level Toronto Center
Tue 06:07:44 PM 43.6333 -77.9000 105° East 470 541 29,000  Level Toronto Center
Tue 06:08:44 PM 43.6000 -77.7167 104° East 470 541 29,000  Level Toronto Center
Tue 06:09:44 PM 43.5667 -77.5333 104° East 470 541 29,000  Level Toronto Center
Tue 06:10:44 PM 43.5167 -77.3500 111° Southeast 470 541 29,000  Level Toronto Center
Tue 06:11:44 PM 43.4833 -77.2000 107° East 470 541 29,000  Level Toronto Center
Tue 06:12:44 PM 43.4500 -77.0167 104° East 470 541 29,000  Level Toronto Center
Tue 06:13:17 PM 43.4492 -76.9539 91° East 469 540 29,000  Level Boston Center
Tue 06:14:17 PM 43.4139 -76.7853 106° East 469 540 29,000  Level Boston Center
Tue 06:15:17 PM 43.3861 -76.6375 104° East 454 522 29,000 -500 Level Boston Center
Tue 06:16:17 PM 43.3503 -76.4781 107° East 443 510 28,000 -1,250 Descending Boston Center
Tue 06:17:17 PM 43.2669 -76.3556 133° Southeast 428 493 26,500 -1,950 Descending Boston Center
Tue 06:18:17 PM 43.1678 -76.2667 147° Southeast 415 478 24,100 -1,350 Descending Boston Center
Tue 06:19:17 PM 43.0728 -76.1753 145° Southeast 421 484 23,800 -550 Descending Boston Center
Tue 06:20:17 PM 42.9758 -76.0814 145° Southeast 426 490 23,000 -400 Descending Boston Center
Tue 06:21:17 PM 42.8831 -75.9822 142° Southeast 426 490 23,000  Level Boston Center
Tue 06:22:17 PM 42.7964 -75.8839 140° Southeast 426 490 23,000  Level Boston Center
Tue 06:23:17 PM 42.7758 -75.7328 100° East 384 442 23,000  Level Boston Center
Tue 06:24:17 PM 42.7742 -75.5744 91° East 391 450 23,000  Level Boston Center
Tue 06:25:17 PM 42.7719 -75.4186 91° East 397 457 23,000  Level Boston Center
Tue 06:26:17 PM 42.7717 -75.2658 90° East 397 457 23,000 -950 Level Boston Center
Tue 06:27:17 PM 42.7692 -75.1158 91° East 403 464 21,100 -2,200 Descending Boston Center
Tue 06:28:17 PM 42.7703 -74.9689 89° East 403 464 18,600 -2,532 Descending Boston Center
Tue 06:29:06 PM 42.7650 -74.8328 93° East 382 440 16,500 -2,423 Descending Boston Center
Tue 06:30:01 PM 42.7656 -74.7083 90° East 368 423 14,400 -2,243 Descending Boston Center
Tue 06:31:01 PM 42.7639 -74.5725 91° East 353 406 12,200 -1,884 Descending Boston Center
Tue 06:32:02 PM 42.7600 -74.4450 92° East 336 387 10,600 -1,869 Descending Boston Center
Tue 06:33:03 PM 42.7597 -74.3347 90° East 293 337 8,400 -2,281 Descending Boston Center
Tue 06:34:03 PM 42.7575 -74.2244 92° East 288 331 6,000 -2,083 Descending Boston Center
Tue 06:35:04 PM 42.7778 -74.1258 74° East 275 316 4,200 -1,438 Descending Boston Center
Tue 06:36:04 PM 42.8103 -74.0364 64° Northeast 258 297 3,100 -595 Descending Boston Center
Tue 06:37:05 PM 42.8303 -73.9433 74° East 230 265 3,000 -492 Descending Boston Center
Tue 06:38:06 PM 42.8436 -73.8700 76° East 185 213 2,100 -645 Descending Boston Center
Tue 06:39:06 PM 42.8256 -73.8131 113° Southeast 152 175 1,700 -595 Descending Boston Center
Tue 06:40:07 PM 42.7881 -73.8094 176° South 125 144 900 -787 Descending Boston Center
Tue 06:45:00 PM 42.7491 -73.8020 52° Northeast  Level Estimated

Login

Don't have an account? Register now (free) for customized features, flight alerts, and more!